Time;durP1;ratioP1;P1;durP2;ratioP2;P2;SDS_P1;SDS_P2;PMS_P1;PMS_P2;Temp;Humidity;BMP_temperature;BMP_pressure;BME280_temperature;BME280_humidity;BME280_pressure;Samples;Min_cycle;Max_cycle;Signal;HPM_P1;HPM_P2
2022/06/26 00:00:48;;;;;;;;;;;;;;;21.45;100.00;99937.59;5071362;28;19984;-63
2022/06/26 00:03:13;;;;;;;;;;;;;;;21.30;100.00;99930.66;5071187;28;20447;-63
2022/06/26 00:05:39;;;;;;;;;;;;;;;21.31;100.00;99921.56;5071354;28;19954;-63
2022/06/26 00:08:05;;;;;;;;;;;;;;;21.26;100.00;99916.50;5071555;28;19946;-63
2022/06/26 00:10:30;;;;;;;;;;;;;;;21.17;100.00;99894.72;5071435;28;19955;-63
2022/06/26 00:12:55;;;;;;;;;;;;;;;21.15;100.00;99869.63;5071310;28;19919;-64
2022/06/26 00:15:21;;;;;;;;;;;;;;;21.11;100.00;99858.19;5071398;28;19940;-63
2022/06/26 00:17:46;;;;;;;;;;;;;;;21.07;100.00;99850.44;5070939;28;20026;-61
2022/06/26 00:20:12;;;;;;;;;;;;;;;21.02;100.00;99858.03;5070998;28;20433;-61
2022/06/26 00:22:37;;;;;;;;;;;;;;;21.02;100.00;99858.88;5071018;28;20042;-61
2022/06/26 00:25:03;;;;;;;;;;;;;;;21.00;100.00;99862.69;5070766;28;19933;-61
2022/06/26 00:27:28;;;;;;;;;;;;;;;20.97;100.00;99862.91;5071088;28;19956;-61
2022/06/26 00:29:53;;;;;;;;;;;;;;;20.94;100.00;99864.88;5071146;28;19943;-61
2022/06/26 00:32:18;;;;;;;;;;;;;;;20.86;100.00;99859.19;5053110;28;19932;-62
2022/06/26 00:34:44;;;;;;;;;;;;;;;20.83;100.00;99863.97;5070945;28;19937;-62
2022/06/26 00:37:09;;;;;;;;;;;;;;;20.83;100.00;99863.97;5070565;28;19941;-62
2022/06/26 00:39:34;;;;;;;;;;;;;;;20.83;100.00;99864.84;5071074;28;20468;-63
2022/06/26 00:42:00;;;;;;;;;;;;;;;20.83;100.00;99863.97;5070768;28;19999;-63
2022/06/26 00:44:26;;;;;;;;;;;;;;;20.76;100.00;99877.09;5075004;28;20368;-63
2022/06/26 00:46:52;;;;;;;;;;;;;;;20.65;100.00;99882.47;5073106;28;19934;-63
2022/06/26 00:49:17;;;;;;;;;;;;;;;20.56;100.00;99883.16;5073026;28;19927;-63
2022/06/26 00:51:49;;;;;;;;;;;;;;;20.60;100.00;99886.47;5072777;28;20307;-63
2022/06/26 00:54:15;;;;;;;;;;;;;;;20.54;100.00;99886.97;5072545;28;20454;-64
2022/06/26 00:56:40;;;;;;;;;;;;;;;20.52;100.00;99881.66;5071775;28;20023;-64
2022/06/26 00:59:05;;;;;;;;;;;;;;;20.61;100.00;99883.66;5070740;28;19994;-64
2022/06/26 01:01:31;;;;;;;;;;;;;;;20.57;100.00;99889.41;5072236;28;20018;-63
2022/06/26 01:03:57;;;;;;;;;;;;;;;20.59;100.00;99888.31;5072641;28;20083;-63
2022/06/26 01:06:22;;;;;;;;;;;;;;;20.62;100.00;99882.69;5072897;28;19942;-63
2022/06/26 01:08:47;;;;;;;;;;;;;;;20.62;100.00;99881.84;5073227;28;20529;-63
2022/06/26 01:11:20;;;;;;;;;;;;;;;20.60;100.00;99868.44;5074154;28;19932;-63
2022/06/26 01:13:50;;;;;;;;;;;;;;;20.60;100.00;99860.31;5074375;28;19936;-64
2022/06/26 01:16:17;;;;;;;;;;;;;;;20.65;100.00;99852.72;5074019;28;19956;-64
2022/06/26 01:18:43;;;;;;;;;;;;;;;20.62;100.00;99850.25;5074527;28;20377;-64
2022/06/26 01:21:08;;;;;;;;;;;;;;;20.63;100.00;99856.50;5073073;28;20340;-64
2022/06/26 01:23:37;;;;;;;;;;;;;;;20.49;100.00;99857.56;5072844;28;19951;-64
2022/06/26 01:26:03;;;;;;;;;;;;;;;20.50;100.00;99851.19;5072484;28;19935;-64
2022/06/26 01:28:28;;;;;;;;;;;;;;;20.49;100.00;99849.44;5073365;28;20424;-64
2022/06/26 01:30:53;;;;;;;;;;;;;;;20.33;100.00;99846.19;5072964;28;19920;-64
2022/06/26 01:33:19;;;;;;;;;;;;;;;20.47;100.00;99839.75;5073450;28;19930;-64
2022/06/26 01:35:44;;;;;;;;;;;;;;;20.51;100.00;99844.78;5073392;28;20403;-64
2022/06/26 01:38:11;;;;;;;;;;;;;;;20.50;100.00;99845.78;5074060;28;19960;-64
2022/06/26 01:40:36;;;;;;;;;;;;;;;20.45;100.00;99842.56;5073830;28;19970;-64
2022/06/26 01:43:01;;;;;;;;;;;;;;;20.48;100.00;99842.31;5073156;28;20419;-64
2022/06/26 01:45:27;;;;;;;;;;;;;;;20.41;100.00;99830.25;5073544;28;19930;-64
2022/06/26 01:47:53;;;;;;;;;;;;;;;20.44;100.00;99827.34;5073719;28;20408;-64
2022/06/26 01:50:19;;;;;;;;;;;;;;;20.43;100.00;99822.91;5073185;28;19943;-64
2022/06/26 01:52:44;;;;;;;;;;;;;;;20.46;100.00;99817.25;5072201;28;20012;-64
2022/06/26 01:55:09;;;;;;;;;;;;;;;20.43;100.00;99827.44;5071358;28;19963;-64
2022/06/26 01:57:35;;;;;;;;;;;;;;;20.39;100.00;99821.44;5071697;28;19927;-64
2022/06/26 02:00:00;;;;;;;;;;;;;;;20.38;100.00;99830.50;5071449;28;20043;-64
2022/06/26 02:02:25;;;;;;;;;;;;;;;20.35;100.00;99836.13;5071394;28;19947;-64
2022/06/26 02:04:51;;;;;;;;;;;;;;;20.33;100.00;99832.69;5071717;28;20000;-64
2022/06/26 02:07:16;;;;;;;;;;;;;;;20.29;100.00;99823.09;5071855;28;19969;-64
2022/06/26 02:15:09;;;;;;;;;;;;;;;20.13;100.00;99817.06;5073467;28;19964;-65
2022/06/26 02:17:34;;;;;;;;;;;;;;;20.13;100.00;99816.22;5055063;28;19989;-65
2022/06/26 02:19:59;;;;;;;;;;;;;;;20.08;100.00;99816.53;5072886;28;19931;-65
2022/06/26 02:22:25;;;;;;;;;;;;;;;20.01;100.00;99820.69;5072503;28;19951;-65
2022/06/26 02:24:50;;;;;;;;;;;;;;;19.93;100.00;99812.31;5072963;28;19929;-64
2022/06/26 02:27:15;;;;;;;;;;;;;;;19.87;100.00;99812.75;5072617;28;19935;-64
2022/06/26 02:29:40;;;;;;;;;;;;;;;19.80;100.00;99800.69;5072788;28;19924;-64
2022/06/26 02:32:06;;;;;;;;;;;;;;;19.73;100.00;99802.09;5073089;28;19929;-64
2022/06/26 02:34:31;;;;;;;;;;;;;;;19.57;100.00;99809.59;5072988;28;19928;-65
2022/06/26 02:36:56;;;;;;;;;;;;;;;19.56;100.00;99818.66;5053768;28;19930;-65
2022/06/26 02:39:22;;;;;;;;;;;;;;;19.52;100.00;99819.88;5053155;28;19973;-65
2022/06/26 02:41:47;;;;;;;;;;;;;;;19.49;100.00;99818.22;5070810;28;19929;-65
2022/06/26 02:44:12;;;;;;;;;;;;;;;19.43;100.00;99817.81;5071177;28;19972;-65
2022/06/26 02:46:37;;;;;;;;;;;;;;;19.39;100.00;99817.16;5070522;28;19936;-65
2022/06/26 02:49:03;;;;;;;;;;;;;;;19.37;100.00;99812.88;5071001;28;20304;-65
2022/06/26 02:51:28;;;;;;;;;;;;;;;19.36;100.00;99811.13;5071115;28;19926;-65
2022/06/26 02:53:53;;;;;;;;;;;;;;;19.34;100.00;99826.59;5071904;28;19963;-65
2022/06/26 02:56:19;;;;;;;;;;;;;;;19.21;100.00;99826.53;5072080;28;19926;-65
2022/06/26 02:58:44;;;;;;;;;;;;;;;19.19;100.00;99835.72;5072125;28;20008;-65
2022/06/26 03:01:09;;;;;;;;;;;;;;;19.17;100.00;99849.31;5071401;28;19926;-65
2022/06/26 03:03:34;;;;;;;;;;;;;;;19.19;100.00;99846.50;5072048;28;20315;-65
2022/06/26 03:06:00;;;;;;;;;;;;;;;19.16;100.00;99846.72;5070524;28;20011;-65
2022/06/26 03:08:25;;;;;;;;;;;;;;;19.15;100.00;99845.84;5071993;28;20374;-65
2022/06/26 03:10:50;;;;;;;;;;;;;;;19.17;100.00;99853.84;5071992;28;19969;-65
2022/06/26 03:13:16;;;;;;;;;;;;;;;19.14;100.00;99845.97;5072359;28;20023;-65
2022/06/26 03:15:41;;;;;;;;;;;;;;;19.14;100.00;99844.09;5072060;28;19922;-65
2022/06/26 03:18:06;;;;;;;;;;;;;;;19.17;100.00;99843.06;5071864;28;19931;-64
2022/06/26 03:20:32;;;;;;;;;;;;;;;19.17;100.00;99845.75;5071907;28;20391;-65
2022/06/26 03:22:57;;;;;;;;;;;;;;;19.15;100.00;99851.25;5071696;28;19950;-65
2022/06/26 03:25:22;;;;;;;;;;;;;;;19.15;100.00;99844.97;5071576;28;20402;-65
2022/06/26 03:27:48;;;;;;;;;;;;;;;19.13;100.00;99846.91;5071421;28;19933;-65
2022/06/26 03:30:13;;;;;;;;;;;;;;;19.08;100.00;99855.34;5072208;28;19937;-65
2022/06/26 03:32:39;;;;;;;;;;;;;;;19.08;100.00;99854.47;5071733;28;19929;-65
2022/06/26 03:35:05;;;;;;;;;;;;;;;19.07;100.00;99861.72;5071603;28;20471;-65
2022/06/26 03:37:30;;;;;;;;;;;;;;;19.07;100.00;99853.63;5071372;28;19931;-65
2022/06/26 03:39:55;;;;;;;;;;;;;;;19.07;100.00;99860.84;5070793;28;19922;-65
2022/06/26 03:42:21;;;;;;;;;;;;;;;19.05;100.00;99844.78;5071393;28;20074;-65
2022/06/26 03:44:46;;;;;;;;;;;;;;;19.00;100.00;99851.44;5071513;28;19925;-65
2022/06/26 03:47:11;;;;;;;;;;;;;;;19.02;100.00;99857.59;5071416;28;19922;-65
2022/06/26 03:49:37;;;;;;;;;;;;;;;19.03;100.00;99851.22;5071580;28;19942;-65
2022/06/26 03:52:03;;;;;;;;;;;;;;;19.03;100.00;99846.69;5071577;28;20013;-65
2022/06/26 03:54:30;;;;;;;;;;;;;;;19.04;100.00;99844.88;5071011;28;19964;-65
2022/06/26 03:56:55;;;;;;;;;;;;;;;19.00;100.00;99846.06;5070773;28;20031;-65
2022/06/26 03:59:20;;;;;;;;;;;;;;;18.98;100.00;99832.69;5071247;28;20019;-65
2022/06/26 04:01:46;;;;;;;;;;;;;;;19.02;100.00;99838.72;5071446;28;19921;-65
2022/06/26 04:04:11;;;;;;;;;;;;;;;19.03;100.00;99843.13;5071176;28;20312;-65
2022/06/26 04:06:36;;;;;;;;;;;;;;;19.02;100.00;99845.00;5071332;28;19969;-65
2022/06/26 04:09:02;;;;;;;;;;;;;;;19.00;100.00;99837.97;5071271;28;20013;-65
2022/06/26 04:11:29;;;;;;;;;;;;;;;18.95;100.00;99838.28;5071267;28;20018;-65
2022/06/26 04:13:54;;;;;;;;;;;;;;;19.10;100.00;99837.22;5071060;28;20066;-65
2022/06/26 04:16:19;;;;;;;;;;;;;;;19.21;100.00;99844.53;5072144;28;19923;-65
2022/06/26 04:18:45;;;;;;;;;;;;;;;19.33;100.00;99841.91;5075200;28;19923;-65
2022/06/26 04:21:10;;;;;;;;;;;;;;;19.38;100.00;99849.66;5074142;28;19992;-65
2022/06/26 04:23:35;;;;;;;;;;;;;;;19.46;100.00;99849.97;5073724;28;19946;-65
2022/06/26 04:26:01;;;;;;;;;;;;;;;19.50;100.00;99857.72;5073422;28;19934;-65
2022/06/26 04:28:26;;;;;;;;;;;;;;;19.55;100.00;99854.72;5073709;28;19976;-65
2022/06/26 04:30:51;;;;;;;;;;;;;;;19.59;100.00;99864.28;5073801;28;20369;-64
2022/06/26 04:33:17;;;;;;;;;;;;;;;19.64;100.00;99871.09;5073495;28;19953;-64
2022/06/26 04:35:42;;;;;;;;;;;;;;;19.67;100.00;99872.69;5074915;28;19971;-64
2022/06/26 04:38:08;;;;;;;;;;;;;;;19.72;100.00;99873.22;5075006;28;19980;-64
2022/06/26 04:40:33;;;;;;;;;;;;;;;19.77;100.00;99871.06;5074937;28;19934;-64
2022/06/26 04:42:58;;;;;;;;;;;;;;;19.86;100.00;99878.50;5074726;28;19950;-64
2022/06/26 04:45:23;;;;;;;;;;;;;;;20.02;100.00;99892.63;5074892;28;20381;-64
2022/06/26 04:47:49;;;;;;;;;;;;;;;20.18;100.00;99895.94;5074090;28;19921;-64
2022/06/26 04:50:14;;;;;;;;;;;;;;;20.37;100.00;99893.63;5074535;28;19926;-64
2022/06/26 04:52:46;;;;;;;;;;;;;;;20.48;100.00;99874.75;5074177;28;19984;-64
2022/06/26 04:55:12;;;;;;;;;;;;;;;20.60;100.00;99878.38;5072226;28;19979;-64
2022/06/26 04:57:37;;;;;;;;;;;;;;;20.70;100.00;99880.28;5072870;28;19929;-64
2022/06/26 05:00:05;;;;;;;;;;;;;;;20.74;100.00;99880.91;5072785;28;20005;-64
2022/06/26 05:02:30;;;;;;;;;;;;;;;20.59;100.00;99892.88;5073222;28;19952;-64
2022/06/26 05:04:55;;;;;;;;;;;;;;;20.81;100.00;99888.41;5055016;28;19935;-64
2022/06/26 05:07:21;;;;;;;;;;;;;;;20.94;100.00;99897.31;5072147;28;20009;-64
2022/06/26 05:09:46;;;;;;;;;;;;;;;21.03;100.00;99903.91;5072054;28;20304;-64
2022/06/26 05:12:11;;;;;;;;;;;;;;;21.14;100.00;99890.41;5072561;28;19954;-64
2022/06/26 05:14:36;;;;;;;;;;;;;;;21.19;100.00;99888.19;5073245;28;20266;-64
2022/06/26 05:17:02;;;;;;;;;;;;;;;21.25;100.00;99878.75;5073425;28;20009;-64
2022/06/26 05:19:27;;;;;;;;;;;;;;;21.37;100.00;99886.75;5073219;28;19938;-65
2022/06/26 05:21:53;;;;;;;;;;;;;;;21.37;100.00;99883.16;5073898;28;19919;-65
2022/06/26 05:24:18;;;;;;;;;;;;;;;21.33;100.00;99885.28;5073707;28;19964;-65
2022/06/26 05:26:43;;;;;;;;;;;;;;;21.31;100.00;99887.25;5073942;28;19927;-64
2022/06/26 05:29:09;;;;;;;;;;;;;;;21.37;100.00;99888.59;5073065;28;19923;-64
2022/06/26 05:31:34;;;;;;;;;;;;;;;21.45;100.00;99886.16;5073869;28;20013;-64
2022/06/26 05:33:59;;;;;;;;;;;;;;;21.48;100.00;99894.03;5073873;28;19926;-64
2022/06/26 05:36:25;;;;;;;;;;;;;;;21.47;100.00;99889.59;5073960;28;20381;-64
2022/06/26 05:38:50;;;;;;;;;;;;;;;21.38;100.00;99898.44;5073192;28;19925;-65
2022/06/26 05:41:15;;;;;;;;;;;;;;;21.42;100.00;99897.22;5072551;28;19929;-64
2022/06/26 05:43:42;;;;;;;;;;;;;;;21.46;100.00;99898.69;5073640;28;19977;-64
2022/06/26 05:46:07;;;;;;;;;;;;;;;21.51;100.00;99908.19;5072384;28;19943;-64
2022/06/26 05:48:32;;;;;;;;;;;;;;;21.48;100.00;99910.28;5071579;28;19920;-65
2022/06/26 05:50:58;;;;;;;;;;;;;;;21.48;100.00;99916.53;5071864;28;20004;-65
2022/06/26 05:53:23;;;;;;;;;;;;;;;21.53;100.00;99918.91;5071506;28;20349;-64
2022/06/26 05:55:48;;;;;;;;;;;;;;;21.66;100.00;99922.34;5071660;28;20317;-64
2022/06/26 05:58:14;;;;;;;;;;;;;;;21.71;100.00;99933.69;5071264;28;19978;-64
2022/06/26 06:00:39;;;;;;;;;;;;;;;21.77;100.00;99933.22;5072200;28;19946;-64
2022/06/26 06:03:05;;;;;;;;;;;;;;;21.88;100.00;99941.34;5073313;28;19945;-64
2022/06/26 06:05:30;;;;;;;;;;;;;;;22.05;100.00;99939.03;5073268;28;20331;-64
2022/06/26 06:07:56;;;;;;;;;;;;;;;22.05;100.00;99943.56;5073146;28;19929;-65
2022/06/26 06:10:22;;;;;;;;;;;;;;;22.25;100.00;99945.53;5073214;28;19984;-64
2022/06/26 06:12:48;;;;;;;;;;;;;;;22.50;99.93;99947.09;5073321;28;19955;-64
2022/06/26 06:15:13;;;;;;;;;;;;;;;22.55;98.24;99953.91;5073146;28;19971;-64
2022/06/26 06:17:42;;;;;;;;;;;;;;;22.56;98.22;99952.03;5073111;28;20037;-64
2022/06/26 06:20:07;;;;;;;;;;;;;;;22.70;98.82;99957.19;5072503;28;19936;-64
2022/06/26 06:22:32;;;;;;;;;;;;;;;22.91;98.92;99950.81;5072857;28;19952;-64
2022/06/26 06:24:58;;;;;;;;;;;;;;;22.85;98.58;99948.59;5072978;28;19933;-64
2022/06/26 06:27:23;;;;;;;;;;;;;;;22.84;96.36;99955.03;5072885;28;20329;-64
2022/06/26 06:29:48;;;;;;;;;;;;;;;22.90;97.14;99961.81;5072813;28;20013;-64
2022/06/26 06:32:13;;;;;;;;;;;;;;;22.85;95.21;99962.16;5072908;28;19935;-64
2022/06/26 06:34:39;;;;;;;;;;;;;;;23.04;94.83;99959.66;5072810;28;20300;-64
2022/06/26 06:37:04;;;;;;;;;;;;;;;23.20;92.71;99953.75;5072416;28;19927;-64
2022/06/26 06:39:30;;;;;;;;;;;;;;;23.32;93.42;99950.03;5072651;28;19939;-64
2022/06/26 06:41:55;;;;;;;;;;;;;;;23.20;92.51;99954.63;5072724;28;19929;-64
2022/06/26 06:44:20;;;;;;;;;;;;;;;23.04;92.84;99962.34;5072000;28;19930;-64
2022/06/26 06:46:45;;;;;;;;;;;;;;;22.95;93.27;99960.41;5072577;28;19971;-64
2022/06/26 06:49:11;;;;;;;;;;;;;;;23.12;93.34;99959.84;5071878;28;19930;-64
2022/06/26 06:51:36;;;;;;;;;;;;;;;23.43;94.29;99966.25;5072038;28;19933;-64
2022/06/26 06:54:02;;;;;;;;;;;;;;;23.69;93.78;99962.13;5072213;28;20314;-64
2022/06/26 06:56:27;;;;;;;;;;;;;;;23.89;91.73;99960.38;5072145;28;19937;-64
2022/06/26 06:58:52;;;;;;;;;;;;;;;24.05;88.79;99960.81;5072300;28;20280;-65
2022/06/26 07:01:18;;;;;;;;;;;;;;;24.17;87.96;99952.41;5071048;28;19938;-65
2022/06/26 07:03:43;;;;;;;;;;;;;;;24.10;89.13;99958.53;5072264;28;19959;-65
2022/06/26 07:06:08;;;;;;;;;;;;;;;24.26;87.80;99964.31;5071961;28;20013;-65
2022/06/26 07:08:33;;;;;;;;;;;;;;;24.23;85.86;99961.88;5072350;28;20475;-65
2022/06/26 07:10:59;;;;;;;;;;;;;;;24.33;86.91;99955.47;5072102;28;19935;-65
2022/06/26 07:13:24;;;;;;;;;;;;;;;24.55;87.53;99954.38;5071929;28;19937;-65
2022/06/26 07:15:49;;;;;;;;;;;;;;;24.69;85.75;99956.75;5071589;28;20018;-65
2022/06/26 07:18:15;;;;;;;;;;;;;;;25.04;84.85;99956.22;5072131;28;19930;-65
2022/06/26 07:20:40;;;;;;;;;;;;;;;25.31;83.21;99956.34;5072080;28;19947;-65
2022/06/26 07:23:05;;;;;;;;;;;;;;;25.40;81.28;99950.09;5071947;28;20047;-65
2022/06/26 07:25:30;;;;;;;;;;;;;;;25.36;80.99;99948.63;5071593;28;20291;-65
2022/06/26 07:27:56;;;;;;;;;;;;;;;25.47;80.04;99943.06;5071804;28;19937;-65
2022/06/26 07:30:21;;;;;;;;;;;;;;;25.75;79.60;99942.97;5071750;28;19998;-65
2022/06/26 07:32:47;;;;;;;;;;;;;;;25.98;78.18;99959.00;5071690;28;19937;-65
2022/06/26 07:35:12;;;;;;;;;;;;;;;26.12;77.77;99963.97;5071575;28;20295;-65
2022/06/26 07:37:37;;;;;;;;;;;;;;;25.93;78.18;99973.91;5071792;28;19937;-65
2022/06/26 07:40:03;;;;;;;;;;;;;;;25.91;79.57;99975.91;5071858;28;19912;-65
2022/06/26 07:42:29;;;;;;;;;;;;;;;25.89;80.27;99991.59;5071529;28;20421;-65
2022/06/26 07:44:54;;;;;;;;;;;;;;;25.54;77.66;99994.06;5070688;28;19941;-65
2022/06/26 07:47:20;;;;;;;;;;;;;;;25.62;79.74;99996.06;5069238;28;19927;-65
2022/06/26 07:49:45;;;;;;;;;;;;;;;25.58;76.37;99995.50;5061815;28;20067;-65
2022/06/26 07:52:10;;;;;;;;;;;;;;;25.55;77.76;99987.59;5068906;28;19937;-65
2022/06/26 07:54:36;;;;;;;;;;;;;;;25.64;76.27;99994.91;5069715;28;19956;-65
2022/06/26 07:57:01;;;;;;;;;;;;;;;25.93;76.89;100000.28;5069991;28;19980;-66
2022/06/26 07:59:26;;;;;;;;;;;;;;;26.25;74.12;100002.66;5070038;28;20395;-65
2022/06/26 08:01:51;;;;;;;;;;;;;;;26.55;72.83;99996.94;5069531;28;20012;-65
2022/06/26 08:04:17;;;;;;;;;;;;;;;27.20;71.41;99989.34;5068960;28;20440;-65
2022/06/26 08:06:43;;;;;;;;;;;;;;;27.74;66.78;99982.84;5069985;28;20023;-65
2022/06/26 08:09:08;;;;;;;;;;;;;;;28.39;64.22;99974.06;5070047;28;19927;-65
2022/06/26 08:11:34;;;;;;;;;;;;;;;28.89;61.69;99984.19;5069840;28;19935;-65
2022/06/26 08:13:59;;;;;;;;;;;;;;;29.02;59.86;99979.09;5070114;28;19927;-65
2022/06/26 08:16:24;;;;;;;;;;;;;;;28.68;60.91;99972.84;5070954;28;20463;-65
2022/06/26 08:18:50;;;;;;;;;;;;;;;28.77;63.12;99974.56;5071493;28;20024;-65
2022/06/26 08:23:59;;;;;;;;;;;;;;;29.25;60.46;99969.25;5069434;28;20457;-65
2022/06/26 08:26:24;;;;;;;;;;;;;;;29.15;57.46;99974.00;5069376;28;19940;-65
2022/06/26 08:28:50;;;;;;;;;;;;;;;28.74;60.40;99973.03;5069138;28;20497;-65
2022/06/26 08:31:15;;;;;;;;;;;;;;;28.45;59.89;99986.25;5069420;28;19935;-65
2022/06/26 08:33:40;;;;;;;;;;;;;;;28.23;62.13;99987.69;5069468;28;19940;-64
2022/06/26 08:36:06;;;;;;;;;;;;;;;28.08;62.72;99988.41;5070312;28;19926;-64
2022/06/26 08:38:32;;;;;;;;;;;;;;;27.85;62.43;99990.81;5070576;28;19933;-65
2022/06/26 08:40:59;;;;;;;;;;;;;;;27.85;63.66;99989.94;5070492;28;19955;-65
2022/06/26 08:43:24;;;;;;;;;;;;;;;27.91;64.50;100001.13;5070699;28;20475;-65
2022/06/26 08:45:53;;;;;;;;;;;;;;;28.02;64.04;99998.13;5071093;28;19926;-65
2022/06/26 08:48:19;;;;;;;;;;;;;;;28.65;63.56;100003.31;5071201;28;19929;-65
2022/06/26 08:50:44;;;;;;;;;;;;;;;28.90;59.80;100018.78;5070531;28;19929;-64
2022/06/26 08:53:10;;;;;;;;;;;;;;;29.19;59.78;100011.03;5070799;28;20035;-64
2022/06/26 08:55:35;;;;;;;;;;;;;;;28.86;59.57;100014.66;5070285;28;19931;-64
2022/06/26 08:58:01;;;;;;;;;;;;;;;28.80;59.36;100015.34;5070799;28;20475;-64
2022/06/26 09:00:26;;;;;;;;;;;;;;;28.20;60.28;100018.06;5070975;28;19968;-65
2022/06/26 09:02:52;;;;;;;;;;;;;;;28.03;64.01;100009.94;5070798;28;19946;-66
2022/06/26 09:05:17;;;;;;;;;;;;;;;27.73;63.54;100011.22;5074194;28;20310;-65
2022/06/26 09:07:49;;;;;;;;;;;;;;;27.46;63.54;100010.47;5074333;28;19950;-65
2022/06/26 09:10:17;;;;;;;;;;;;;;;26.95;62.76;100016.59;5074458;28;20342;-65
2022/06/26 09:12:42;;;;;;;;;;;;;;;26.61;63.68;100007.25;5074119;28;20002;-65
2022/06/26 09:15:14;;;;;;;;;;;;;;;26.59;65.28;100010.13;5074508;28;20013;-65
2022/06/26 09:17:40;;;;;;;;;;;;;;;26.75;64.82;100009.53;5074275;28;19964;-64
2022/06/26 09:20:07;;;;;;;;;;;;;;;26.94;64.71;100017.56;5074162;28;19970;-64
2022/06/26 09:22:32;;;;;;;;;;;;;;;27.06;67.36;100019.09;5074060;28;19949;-64
2022/06/26 09:24:58;;;;;;;;;;;;;;;27.29;66.86;100017.66;5074215;28;20023;-64
2022/06/26 09:27:24;;;;;;;;;;;;;;;27.55;65.59;100015.84;5074703;28;19997;-65
2022/06/26 09:29:50;;;;;;;;;;;;;;;27.44;64.64;100018.84;5074640;28;19979;-65
2022/06/26 09:32:16;;;;;;;;;;;;;;;27.41;65.77;100019.16;5074085;28;20650;-65
2022/06/26 09:34:51;;;;;;;;;;;;;;;27.48;65.50;100025.69;5074176;28;19925;-65
2022/06/26 09:37:18;;;;;;;;;;;;;;;27.58;64.12;100015.53;5073901;28;19971;-65
2022/06/26 09:39:43;;;;;;;;;;;;;;;27.58;63.96;100009.22;5073650;28;19912;-65
2022/06/26 09:42:18;;;;;;;;;;;;;;;27.67;64.91;100009.13;5073982;28;20399;-65
2022/06/26 09:44:46;;;;;;;;;;;;;;;27.58;64.28;99992.81;5074076;28;20505;-65
2022/06/26 09:47:25;;;;;;;;;;;;;;;27.72;64.84;100004.03;5073208;28;20399;-65
2022/06/26 09:49:52;;;;;;;;;;;;;;;27.73;64.85;100003.00;5073333;28;19929;-65
2022/06/26 09:52:18;;;;;;;;;;;;;;;27.28;62.79;99994.09;5073476;28;19999;-65
2022/06/26 09:54:44;;;;;;;;;;;;;;;27.28;65.30;99994.09;5073570;28;19961;-65
2022/06/26 09:57:10;;;;;;;;;;;;;;;27.43;65.69;100003.44;5073095;28;19977;-65
2022/06/26 09:59:35;;;;;;;;;;;;;;;27.50;64.85;100001.78;5073542;28;19933;-64
2022/06/26 10:07:29;;;;;;;;;;;;;;;27.87;60.36;99983.31;5073544;28;19998;-64
2022/06/26 10:09:56;;;;;;;;;;;;;;;28.13;60.73;99980.59;5073242;28;20377;-65
2022/06/26 10:12:22;;;;;;;;;;;;;;;28.39;59.62;99985.00;5073176;28;19938;-65
2022/06/26 10:14:50;;;;;;;;;;;;;;;28.59;59.59;99979.31;5073122;28;19934;-64
2022/06/26 10:17:35;;;;;;;;;;;;;;;28.72;60.50;99974.22;5072856;28;19940;-64
2022/06/26 10:20:02;;;;;;;;;;;;;;;28.91;59.10;99971.22;5073308;28;19929;-64
2022/06/26 10:22:37;;;;;;;;;;;;;;;28.83;55.53;99979.41;5072748;28;20485;-64
2022/06/26 10:25:02;;;;;;;;;;;;;;;28.98;58.15;99981.31;5073173;28;19931;-64
2022/06/26 10:27:29;;;;;;;;;;;;;;;29.06;54.94;99975.00;5072518;28;20416;-64
2022/06/26 10:30:11;;;;;;;;;;;;;;;29.06;58.49;99967.63;5072982;28;19926;-64
2022/06/26 10:32:36;;;;;;;;;;;;;;;28.98;59.90;99983.22;5072338;28;20752;-64
2022/06/26 10:35:03;;;;;;;;;;;;;;;28.52;56.12;99979.09;5072989;28;19933;-64
2022/06/26 10:37:39;;;;;;;;;;;;;;;28.43;59.74;99985.53;5072198;28;19931;-64
2022/06/26 10:40:11;;;;;;;;;;;;;;;28.54;60.30;99978.94;5072736;28;20460;-64
2022/06/26 10:42:54;;;;;;;;;;;;;;;28.67;59.88;99976.59;5072661;28;19952;-64
2022/06/26 10:45:24;;;;;;;;;;;;;;;28.70;60.68;99976.28;5072623;28;19931;-64
2022/06/26 10:47:51;;;;;;;;;;;;;;;28.72;58.92;99980.56;5072661;28;19935;-64
2022/06/26 10:50:34;;;;;;;;;;;;;;;28.65;60.06;99973.19;5072759;28;19937;-64
2022/06/26 10:53:14;;;;;;;;;;;;;;;28.89;58.00;99962.28;5072636;28;19928;-64
2022/06/26 10:55:40;;;;;;;;;;;;;;;29.19;58.70;99964.44;5052704;28;19987;-64
2022/06/26 10:58:05;;;;;;;;;;;;;;;29.28;57.91;99955.19;5051956;28;19926;-64
2022/06/26 11:00:30;;;;;;;;;;;;;;;29.58;57.60;99963.59;5052491;28;19931;-64
2022/06/26 11:02:56;;;;;;;;;;;;;;;29.77;55.77;99964.31;5051646;28;19941;-65
2022/06/26 11:05:21;;;;;;;;;;;;;;;29.80;53.80;99967.56;5051934;28;19937;-65
2022/06/26 11:07:48;;;;;;;;;;;;;;;30.48;53.87;99976.16;5051788;28;19936;-65
2022/06/26 11:10:14;;;;;;;;;;;;;;;31.21;54.39;99972.00;5052352;28;20400;-65
2022/06/26 11:12:47;;;;;;;;;;;;;;;31.74;49.51;99952.72;5052281;28;20535;-65
2022/06/26 11:15:19;;;;;;;;;;;;;;;31.11;50.26;99954.91;5047034;28;20008;-65
2022/06/26 11:17:58;;;;;;;;;;;;;;;31.09;50.44;99956.13;5031979;28;19947;-65
2022/06/26 11:23:25;;;;;;;;;;;;;;;31.73;50.57;99958.41;5032021;28;19956;-65
2022/06/26 11:25:54;;;;;;;;;;;;;;;31.42;47.08;99947.47;5041886;28;19934;-65
2022/06/26 11:28:19;;;;;;;;;;;;;;;31.13;50.44;99951.97;5051976;28;19929;-65
2022/06/26 11:30:45;;;;;;;;;;;;;;;30.75;49.51;99953.72;5051927;28;19936;-65
2022/06/26 11:33:10;;;;;;;;;;;;;;;30.85;50.25;99954.38;5051622;28;19920;-65
2022/06/26 11:35:36;;;;;;;;;;;;;;;30.95;50.75;99951.41;5051680;28;19980;-65
2022/06/26 11:38:09;;;;;;;;;;;;;;;30.92;49.16;99949.88;5051832;28;19978;-65
2022/06/26 11:40:34;;;;;;;;;;;;;;;31.24;50.38;99946.91;5051475;28;19938;-65
2022/06/26 11:42:59;;;;;;;;;;;;;;;32.09;49.94;99940.16;5051440;28;19973;-65
2022/06/26 11:45:25;;;;;;;;;;;;;;;32.95;48.58;99940.31;5050326;28;19985;-65
2022/06/26 11:47:51;;;;;;;;;;;;;;;33.06;44.47;99940.66;5049679;28;19966;-65
2022/06/26 11:50:18;;;;;;;;;;;;;;;33.03;44.76;99940.19;5049716;28;19930;-65
2022/06/26 11:52:43;;;;;;;;;;;;;;;33.02;44.80;99938.47;5049551;28;20314;-65
2022/06/26 11:55:09;;;;;;;;;;;;;;;33.33;42.94;99945.38;5059442;28;19969;-65
2022/06/26 11:57:34;;;;;;;;;;;;;;;32.86;42.90;99934.03;5069689;28;19939;-65
2022/06/26 12:00:03;;;;;;;;;;;;;;;32.80;44.20;99940.31;5070597;28;19929;-67
2022/06/26 12:02:28;;;;;;;;;;;;;;;32.65;42.17;99947.78;5071468;28;19962;-66
2022/06/26 12:05:00;;;;;;;;;;;;;;;32.84;43.81;99933.38;5071556;28;20305;-66
2022/06/26 12:07:26;;;;;;;;;;;;;;;33.28;42.20;99925.81;5071247;28;19947;-66
2022/06/26 12:09:52;;;;;;;;;;;;;;;33.60;41.89;99918.06;5071123;28;19927;-66
2022/06/26 12:12:17;;;;;;;;;;;;;;;33.79;43.01;99914.63;5071258;28;20372;-66
2022/06/26 12:14:50;;;;;;;;;;;;;;;34.03;43.40;99922.47;5053101;28;20358;-66
2022/06/26 12:17:20;;;;;;;;;;;;;;;34.01;43.79;99916.28;5071347;28;19997;-65
2022/06/26 12:19:48;;;;;;;;;;;;;;;33.99;43.79;99907.34;5070757;28;19973;-65
2022/06/26 12:22:24;;;;;;;;;;;;;;;34.00;42.48;99900.78;5070927;28;20041;-65
2022/06/26 12:24:50;;;;;;;;;;;;;;;33.87;41.99;99907.03;5070429;28;19957;-65
2022/06/26 12:27:15;;;;;;;;;;;;;;;33.93;44.81;99899.88;5071227;28;19930;-65
2022/06/26 12:29:40;;;;;;;;;;;;;;;34.00;42.45;99900.78;5071118;28;19968;-66
2022/06/26 12:32:06;;;;;;;;;;;;;;;33.85;39.79;99891.72;5071145;28;19922;-66
2022/06/26 12:34:31;;;;;;;;;;;;;;;33.89;41.81;99891.13;5070438;28;20274;-66
2022/06/26 12:36:56;;;;;;;;;;;;;;;33.96;40.46;99886.53;5071284;28;19998;-66
2022/06/26 12:39:22;;;;;;;;;;;;;;;33.77;41.88;99889.13;5075222;28;19926;-66
2022/06/26 12:41:47;;;;;;;;;;;;;;;33.78;41.98;99885.31;5075135;28;20351;-66
2022/06/26 12:44:13;;;;;;;;;;;;;;;33.64;41.81;99878.84;5074804;28;19954;-66
2022/06/26 12:46:38;;;;;;;;;;;;;;;33.73;43.88;99876.78;5056962;28;19930;-66
2022/06/26 12:49:03;;;;;;;;;;;;;;;33.45;41.79;99873.16;5074459;28;20353;-66
2022/06/26 12:51:28;;;;;;;;;;;;;;;32.88;44.60;99874.03;5073742;28;19941;-66